Time;durP1;ratioP1;P1;durP2;ratioP2;P2;SDS_P1;SDS_P2;PMS_P1;PMS_P2;Temp;Humidity;BMP_temperature;BMP_pressure;BME280_temperature;BME280_humidity;BME280_pressure;Samples;Min_cycle;Max_cycle;Signal;HPM_P1;HPM_P2
2023/04/03 00:04:27;;;;;;;3.05;2.63;;;;;;;;;;10177282;28;20040;-75
2023/04/03 00:09:21;;;;;;;3.22;2.45;;;;;;;;;;10180797;28;20464;-76
2023/04/03 00:14:14;;;;;;;3.92;3.25;;;;;;;;;;10183178;28;20126;-75
2023/04/03 00:19:11;;;;;;;2.67;2.47;;;;;;;;;;10175442;28;20454;-76
2023/04/03 00:24:06;;;;;;;3.42;2.97;;;;;;;;;;10177696;28;20135;-76
2023/04/03 00:28:58;;;;;;;3.28;2.97;;;;;;;;;;10175654;28;20044;-76
2023/04/03 00:33:52;;;;;;;4.00;2.83;;;;;;;;;;10179321;28;20048;-76
2023/04/03 00:38:45;;;;;;;7.88;3.85;;;;;;;;;;10178985;28;20060;-77
2023/04/03 00:43:40;;;;;;;5.03;3.58;;;;;;;;;;10186174;28;20044;-79
2023/04/03 00:48:40;;;;;;;4.78;3.10;;;;;;;;;;10185340;28;20097;-78
2023/04/03 00:53:40;;;;;;;6.78;3.20;;;;;;;;;;10180046;28;20056;-78
2023/04/03 00:58:38;;;;;;;3.47;3.15;;;;;;;;;;10171246;28;20411;-78
2023/04/03 01:03:31;;;;;;;3.72;3.08;;;;;;;;;;10186370;28;20036;-78
2023/04/03 01:08:26;;;;;;;3.25;2.92;;;;;;;;;;10182419;28;20051;-78
2023/04/03 01:13:30;;;;;;;2.50;2.30;;;;;;;;;;10158946;28;20052;-76
2023/04/03 01:18:26;;;;;;;2.60;2.40;;;;;;;;;;10183238;28;20139;-77
2023/04/03 01:23:31;;;;;;;3.15;2.60;;;;;;;;;;10180250;28;20373;-76
2023/04/03 01:28:32;;;;;;;2.40;2.20;;;;;;;;;;10185243;28;20048;-76
2023/04/03 01:33:25;;;;;;;2.60;2.40;;;;;;;;;;10173443;28;20070;-76
2023/04/03 01:38:20;;;;;;;2.72;2.30;;;;;;;;;;10192231;28;20050;-76
2023/04/03 01:43:13;;;;;;;2.83;2.60;;;;;;;;;;10193013;28;20041;-77
2023/04/03 01:48:07;;;;;;;4.97;3.20;;;;;;;;;;10190128;28;20048;-77
2023/04/03 01:53:01;;;;;;;3.30;3.03;;;;;;;;;;10191600;28;20092;-76
2023/04/03 01:57:55;;;;;;;5.35;3.28;;;;;;;;;;10190829;28;20415;-77
2023/04/03 02:02:49;;;;;;;3.92;3.55;;;;;;;;;;10182943;28;20048;-77
2023/04/03 02:07:41;;;;;;;2.70;2.50;;;;;;;;;;10192653;28;20044;-78
2023/04/03 02:12:35;;;;;;;5.25;3.08;;;;;;;;;;10190720;28;20135;-75
2023/04/03 02:17:28;;;;;;;4.00;3.60;;;;;;;;;;10191333;28;20048;-75
2023/04/03 02:22:22;;;;;;;5.70;3.53;;;;;;;;;;10190919;28;20054;-75
2023/04/03 02:27:16;;;;;;;5.00;3.67;;;;;;;;;;10177330;28;20496;-75
2023/04/03 02:32:10;;;;;;;5.25;3.83;;;;;;;;;;10190916;28;20036;-75
2023/04/03 02:37:04;;;;;;;5.63;5.10;;;;;;;;;;10187653;28;20506;-77
2023/04/03 02:41:58;;;;;;;5.20;3.53;;;;;;;;;;10189751;28;20062;-76
2023/04/03 02:46:53;;;;;;;6.38;4.20;;;;;;;;;;10171637;28;20615;-79
2023/04/03 02:51:46;;;;;;;5.95;5.22;;;;;;;;;;10187484;28;20397;-78
2023/04/03 02:56:39;;;;;;;4.95;4.10;;;;;;;;;;10191667;28;20135;-78
2023/04/03 03:01:32;;;;;;;6.80;4.25;;;;;;;;;;10190048;28;20074;-79
2023/04/03 03:06:25;;;;;;;5.15;4.53;;;;;;;;;;10177099;28;20044;-79
2023/04/03 03:11:19;;;;;;;7.72;4.68;;;;;;;;;;10187356;28;20052;-81
2023/04/03 03:16:12;;;;;;;5.65;4.95;;;;;;;;;;10171863;28;20044;-81
2023/04/03 03:21:06;;;;;;;8.38;5.38;;;;;;;;;;10172356;28;20164;-81
2023/04/03 03:26:03;;;;;;;17.98;6.65;;;;;;;;;;10171585;28;20047;-83
2023/04/03 03:31:00;;;;;;;8.70;5.83;;;;;;;;;;10184182;28;20047;-82
2023/04/03 03:35:54;;;;;;;8.65;5.88;;;;;;;;;;10174890;28;20308;-80
2023/04/03 03:40:48;;;;;;;6.63;4.80;;;;;;;;;;10188593;28;20511;-81
2023/04/03 03:45:46;;;;;;;7.57;5.55;;;;;;;;;;10174392;28;20062;-80
2023/04/03 03:50:39;;;;;;;8.45;5.53;;;;;;;;;;10183230;28;20048;-78
2023/04/03 03:55:34;;;;;;;6.10;4.68;;;;;;;;;;10188028;28;20500;-79
2023/04/03 04:00:29;;;;;;;5.88;4.75;;;;;;;;;;10187072;28;20044;-78
2023/04/03 04:05:23;;;;;;;7.90;5.47;;;;;;;;;;10183630;28;20044;-78
2023/04/03 04:10:18;;;;;;;7.82;5.18;;;;;;;;;;10187883;28;20040;-78
2023/04/03 04:15:12;;;;;;;10.25;6.18;;;;;;;;;;10183040;28;20050;-77
2023/04/03 04:20:06;;;;;;;10.38;6.50;;;;;;;;;;10187592;28;20044;-79
2023/04/03 04:25:01;;;;;;;10.68;6.28;;;;;;;;;;10187028;28;20040;-79
2023/04/03 04:29:54;;;;;;;8.70;6.47;;;;;;;;;;10187519;28;20040;-80
2023/04/03 04:34:50;;;;;;;10.30;6.95;;;;;;;;;;10178752;28;20044;-79
2023/04/03 04:39:44;;;;;;;8.48;6.60;;;;;;;;;;10168473;28;20097;-77
2023/04/03 04:44:38;;;;;;;9.73;6.65;;;;;;;;;;10180745;28;20416;-80
2023/04/03 04:49:33;;;;;;;8.00;6.43;;;;;;;;;;10150192;28;20493;-81
2023/04/03 04:54:27;;;;;;;17.42;6.72;;;;;;;;;;10168893;28;20050;-80
2023/04/03 04:59:22;;;;;;;9.30;6.30;;;;;;;;;;10171172;28;20044;-81
2023/04/03 05:04:17;;;;;;;8.65;7.28;;;;;;;;;;10175493;28;20523;-74
2023/04/03 05:09:15;;;;;;;10.70;7.25;;;;;;;;;;10168279;28;20052;-77
2023/04/03 05:14:10;;;;;;;8.23;6.80;;;;;;;;;;10160487;28;20036;-75
2023/04/03 05:19:04;;;;;;;10.98;8.00;;;;;;;;;;10164863;28;20045;-76
2023/04/03 05:24:02;;;;;;;12.88;9.00;;;;;;;;;;10161363;28;20044;-80
2023/04/03 05:28:58;;;;;;;14.85;9.13;;;;;;;;;;10165171;28;20044;-81
2023/04/03 05:33:52;;;;;;;13.75;8.43;;;;;;;;;;10166124;28;20117;-80
2023/04/03 05:38:46;;;;;;;12.18;7.53;;;;;;;;;;10171604;28;20081;-76
2023/04/03 05:43:40;;;;;;;17.17;7.60;;;;;;;;;;10162916;28;20558;-79
2023/04/03 05:48:36;;;;;;;15.88;7.00;;;;;;;;;;10155374;28;20796;-76
2023/04/03 05:53:32;;;;;;;9.02;6.80;;;;;;;;;;10160954;28;20139;-72
2023/04/03 05:58:28;;;;;;;12.48;6.90;;;;;;;;;;10148087;28;20048;-76
2023/04/03 06:03:22;;;;;;;10.05;7.47;;;;;;;;;;10184177;28;20040;-73
2023/04/03 06:08:15;;;;;;;12.68;7.43;;;;;;;;;;10162348;28;20130;-76
2023/04/03 06:13:09;;;;;;;13.75;6.78;;;;;;;;;;10176535;28;20093;-78
2023/04/03 06:18:03;;;;;;;9.73;6.57;;;;;;;;;;10177976;28;20184;-78
2023/04/03 06:22:57;;;;;;;8.00;6.55;;;;;;;;;;10162139;28;20048;-78
2023/04/03 06:27:55;;;;;;;11.35;7.05;;;;;;;;;;10171212;28;20509;-82
2023/04/03 06:32:48;;;;;;;8.00;6.53;;;;;;;;;;10187901;28;20040;-81
2023/04/03 06:37:42;;;;;;;8.18;7.38;;;;;;;;;;10185226;28;21063;-79
2023/04/03 06:42:34;;;;;;;11.30;7.07;;;;;;;;;;10188724;28;20086;-77
2023/04/03 06:47:35;;;;;;;6.47;5.75;;;;;;;;;;10115666;28;20057;-77
2023/04/03 06:52:29;;;;;;;8.75;6.75;;;;;;;;;;10104686;28;20482;-81
2023/04/03 06:57:24;;;;;;;16.17;7.78;;;;;;;;;;10103710;28;20099;-77
2023/04/03 07:02:18;;;;;;;9.18;7.75;;;;;;;;;;10101508;28;20149;-76
2023/04/03 07:07:12;;;;;;;10.32;9.32;;;;;;;;;;10103595;28;20190;-76
2023/04/03 07:12:07;;;;;;;9.80;8.65;;;;;;;;;;10097315;28;20532;-76
2023/04/03 07:16:59;;;;;;;10.00;8.25;;;;;;;;;;10102297;28;20563;-75
2023/04/03 07:21:54;;;;;;;11.55;10.35;;;;;;;;;;10107393;28;20505;-75
2023/04/03 07:26:52;;;;;;;9.77;8.80;;;;;;;;;;10104400;28;20067;-83
2023/04/03 07:31:46;;;;;;;9.98;8.98;;;;;;;;;;10105942;28;20040;-73
2023/04/03 07:36:41;;;;;;;11.07;7.93;;;;;;;;;;10104116;28;20136;-72
2023/04/03 07:41:35;;;;;;;9.07;8.18;;;;;;;;;;10105143;28;20425;-71
2023/04/03 07:46:28;;;;;;;12.32;10.00;;;;;;;;;;10144824;28;20051;-72
2023/04/03 07:51:24;;;;;;;11.38;8.95;;;;;;;;;;10186169;28;20063;-69
2023/04/03 07:56:17;;;;;;;10.02;9.13;;;;;;;;;;10187213;28;20051;-68
2023/04/03 08:01:11;;;;;;;11.35;9.73;;;;;;;;;;10184760;28;20048;-67
2023/04/03 08:06:07;;;;;;;11.00;9.90;;;;;;;;;;10185586;28;20052;-68
2023/04/03 08:11:08;;;;;;;14.85;8.93;;;;;;;;;;10187363;28;20401;-71
2023/04/03 08:16:10;;;;;;;10.73;9.73;;;;;;;;;;10174088;28;20493;-69
2023/04/03 08:21:25;;;;;;;15.00;9.02;;;;;;;;;;10173833;28;20142;-69
2023/04/03 08:26:21;;;;;;;12.55;10.90;;;;;;;;;;10164879;28;20036;-76
2023/04/03 08:31:18;;;;;;;9.02;8.23;;;;;;;;;;10174354;28;20048;-73
2023/04/03 08:36:20;;;;;;;;;;;;;;;;;;10180148;28;20082;-70
2023/04/03 08:41:35;;;;;;;10.15;7.88;;;;;;;;;;10188178;28;19920;-70
2023/04/03 08:47:10;;;;;;;9.50;7.85;;;;;;;;;;10194948;28;20055;-71
2023/04/03 08:52:10;;;;;;;8.63;7.85;;;;;;;;;;10184348;28;20094;-71
2023/04/03 08:57:06;;;;;;;7.70;7.00;;;;;;;;;;10174710;28;20122;-74
2023/04/03 09:02:06;;;;;;;7.10;6.40;;;;;;;;;;10191366;28;20456;-72
2023/04/03 09:07:07;;;;;;;9.38;6.85;;;;;;;;;;10192565;28;20051;-73
2023/04/03 09:12:50;;;;;;;8.48;5.47;;;;;;;;;;10163065;28;20048;-70
2023/04/03 09:18:06;;;;;;;5.70;5.20;;;;;;;;;;10173304;28;20489;-69
2023/04/03 09:22:59;;;;;;;9.88;3.92;;;;;;;;;;10170115;28;20052;-68
2023/04/03 09:27:53;;;;;;;2.70;2.35;;;;;;;;;;10178268;28;20040;-69
2023/04/03 09:32:53;;;;;;;3.83;2.20;;;;;;;;;;10182361;28;20094;-77
2023/04/03 09:38:13;;;;;;;5.20;2.50;;;;;;;;;;10189620;28;20078;-73
2023/04/03 09:43:29;;;;;;;6.10;4.05;;;;;;;;;;10179334;28;20036;-73
2023/04/03 09:48:53;;;;;;;3.67;3.05;;;;;;;;;;10188570;28;20059;-73
2023/04/03 09:54:00;;;;;;;4.60;3.50;;;;;;;;;;10147241;28;20046;-74
2023/04/03 09:58:59;;;;;;;4.28;3.40;;;;;;;;;;10194029;28;20048;-72
2023/04/03 10:04:07;;;;;;;6.80;2.80;;;;;;;;;;10186570;28;20039;-72
2023/04/03 10:09:04;;;;;;;3.55;3.25;;;;;;;;;;10142792;28;20135;-72
2023/04/03 10:14:04;;;;;;;3.65;3.35;;;;;;;;;;10144473;28;20052;-74
2023/04/03 10:19:05;;;;;;;5.05;3.45;;;;;;;;;;10140957;28;20459;-70
2023/04/03 10:24:26;;;;;;;6.60;4.05;;;;;;;;;;10144140;28;20451;-70
2023/04/03 10:29:28;;;;;;;7.75;5.10;;;;;;;;;;10143716;28;20109;-74
2023/04/03 10:34:39;;;;;;;5.50;4.40;;;;;;;;;;10139150;28;20052;-72
2023/04/03 10:39:57;;;;;;;5.95;4.38;;;;;;;;;;10111560;28;20494;-71
2023/04/03 10:45:17;;;;;;;6.07;5.22;;;;;;;;;;10122242;28;20106;-71
2023/04/03 10:50:31;;;;;;;6.35;5.65;;;;;;;;;;10135773;28;20159;-71
2023/04/03 10:55:54;;;;;;;6.57;5.18;;;;;;;;;;10124165;28;20052;-77
2023/04/03 11:00:49;;;;;;;5.18;4.47;;;;;;;;;;10126596;28;20514;-71
2023/04/03 11:05:45;;;;;;;8.55;4.90;;;;;;;;;;10117382;28;20102;-72
2023/04/03 11:10:45;;;;;;;8.68;4.95;;;;;;;;;;10125902;28;20053;-74
2023/04/03 11:15:41;;;;;;;8.23;5.55;;;;;;;;;;10108567;28;20405;-74
2023/04/03 11:20:34;;;;;;;7.78;5.32;;;;;;;;;;10126127;28;20101;-75
2023/04/03 11:25:30;;;;;;;5.32;4.47;;;;;;;;;;10124168;28;20518;-73
2023/04/03 11:30:48;;;;;;;5.20;3.92;;;;;;;;;;10147867;28;20861;-75
2023/04/03 11:35:46;;;;;;;8.43;5.43;;;;;;;;;;10148157;28;20114;-74
2023/04/03 11:40:40;;;;;;;11.20;5.33;;;;;;;;;;10130136;28;20040;-74
2023/04/03 11:45:50;;;;;;;6.35;3.58;;;;;;;;;;10129619;28;20065;-73
2023/04/03 11:51:12;;;;;;;3.42;3.13;;;;;;;;;;10147207;28;20505;-72
2023/04/03 11:56:25;;;;;;;4.88;3.25;;;;;;;;;;10138146;28;20132;-72
2023/04/03 12:01:58;;;;;;;6.30;3.33;;;;;;;;;;10147105;28;20044;-74
2023/04/03 12:07:04;;;;;;;6.38;3.30;;;;;;;;;;9983658;28;20069;-78
2023/04/03 12:11:59;;;;;;;4.43;4.03;;;;;;;;;;10110872;28;20048;-73
2023/04/03 12:17:16;;;;;;;7.57;4.63;;;;;;;;;;10128609;28;20052;-73
2023/04/03 12:22:30;;;;;;;7.28;3.85;;;;;;;;;;10126947;28;20524;-73
2023/04/03 12:27:38;;;;;;;5.85;3.20;;;;;;;;;;10145034;28;20060;-73
2023/04/03 12:32:57;;;;;;;4.37;2.80;;;;;;;;;;10115600;28;20059;-73
2023/04/03 12:38:32;;;;;;;5.68;3.05;;;;;;;;;;10130794;28;20501;-75
2023/04/03 12:44:02;;;;;;;5.70;3.50;;;;;;;;;;10128750;28;20147;-76
2023/04/03 12:48:59;;;;;;;4.03;2.45;;;;;;;;;;10118675;28;20056;-75
2023/04/03 12:54:00;;;;;;;4.57;2.40;;;;;;;;;;10137567;28;20049;-72
2023/04/03 12:58:57;;;;;;;4.47;2.20;;;;;;;;;;10118175;28;20036;-76
2023/04/03 13:04:00;;;;;;;4.00;2.53;;;;;;;;;;10139067;28;20099;-76
2023/04/03 13:08:56;;;;;;;5.28;2.70;;;;;;;;;;10136328;28;20107;-75
2023/04/03 13:13:59;;;;;;;5.65;2.80;;;;;;;;;;10137286;28;20072;-73
2023/04/03 13:18:53;;;;;;;5.22;3.20;;;;;;;;;;10139109;28;20127;-74
2023/04/03 13:23:49;;;;;;;2.38;1.85;;;;;;;;;;10144007;28;20048;-70
2023/04/03 13:28:53;;;;;;;4.70;2.60;;;;;;;;;;10124708;28;20048;-72
2023/04/03 13:33:55;;;;;;;4.45;3.13;;;;;;;;;;10134209;28;20044;-73
2023/04/03 13:39:14;;;;;;;9.25;2.30;;;;;;;;;;10153877;28;20110;-73
2023/04/03 13:44:22;;;;;;;5.10;2.42;;;;;;;;;;10141180;28;20497;-73
2023/04/03 13:49:28;;;;;;;4.45;2.95;;;;;;;;;;10153004;28;20459;-73
2023/04/03 13:54:33;;;;;;;4.32;1.70;;;;;;;;;;10147358;28;20489;-73
2023/04/03 13:59:30;;;;;;;5.65;1.73;;;;;;;;;;10149658;28;20052;-73
2023/04/03 14:04:27;;;;;;;2.40;1.38;;;;;;;;;;10148808;28;20123;-73
2023/04/03 14:09:22;;;;;;;2.63;1.80;;;;;;;;;;10150723;28;20497;-73
2023/04/03 14:14:30;;;;;;;4.28;1.30;;;;;;;;;;10148681;28;20052;-72
2023/04/03 14:19:26;;;;;;;2.10;1.40;;;;;;;;;;10134557;28;20077;-73
2023/04/03 14:24:21;;;;;;;3.40;1.40;;;;;;;;;;10149626;28;20120;-73
2023/04/03 14:29:14;;;;;;;1.52;1.42;;;;;;;;;;10150288;28;20091;-72
2023/04/03 14:34:08;;;;;;;7.97;1.80;;;;;;;;;;10148383;28;20098;-72
2023/04/03 14:39:04;;;;;;;3.60;1.73;;;;;;;;;;10145397;28;20048;-71
2023/04/03 14:43:57;;;;;;;5.60;1.50;;;;;;;;;;10131459;28;20041;-68
2023/04/03 14:48:51;;;;;;;7.07;1.40;;;;;;;;;;10154241;28;20044;-67
2023/04/03 14:53:44;;;;;;;4.35;1.30;;;;;;;;;;10147227;28;20044;-68
2023/04/03 14:58:37;;;;;;;7.32;1.60;;;;;;;;;;10147275;28;20499;-67
2023/04/03 15:03:32;;;;;;;2.15;1.48;;;;;;;;;;10139115;28;20051;-68
2023/04/03 15:08:26;;;;;;;3.00;1.63;;;;;;;;;;10150845;28;20063;-68
2023/04/03 15:13:20;;;;;;;4.13;2.00;;;;;;;;;;10148191;28;20047;-71
2023/04/03 15:18:17;;;;;;;1.33;1.20;;;;;;;;;;10146957;28;20048;-74
2023/04/03 15:23:12;;;;;;;3.63;1.30;;;;;;;;;;10156084;28;20071;-77
2023/04/03 15:28:06;;;;;;;2.25;1.60;;;;;;;;;;10146973;28;20069;-74
2023/04/03 15:33:00;;;;;;;2.70;1.98;;;;;;;;;;10147008;28;20071;-74
2023/04/03 15:37:54;;;;;;;2.97;1.50;;;;;;;;;;10140291;28;20044;-74
2023/04/03 15:42:47;;;;;;;2.33;1.27;;;;;;;;;;10140270;28;20044;-72
2023/04/03 15:47:40;;;;;;;4.50;1.98;;;;;;;;;;10147143;28;20472;-72
2023/04/03 15:52:34;;;;;;;5.43;1.50;;;;;;;;;;10137371;28;20066;-72
2023/04/03 15:57:28;;;;;;;5.30;1.83;;;;;;;;;;10126433;28;20047;-74
2023/04/03 16:02:21;;;;;;;3.67;1.65;;;;;;;;;;10132431;28;20045;-72
2023/04/03 16:07:15;;;;;;;4.28;1.55;;;;;;;;;;10128787;28;20052;-62
2023/04/03 16:12:09;;;;;;;7.10;1.73;;;;;;;;;;10141019;28;20061;-62
2023/04/03 16:17:02;;;;;;;1.83;1.45;;;;;;;;;;10136354;28;20056;-62
2023/04/03 16:21:55;;;;;;;1.85;1.38;;;;;;;;;;10132727;28;20071;-62
2023/04/03 16:26:48;;;;;;;1.77;1.30;;;;;;;;;;10119257;28;20045;-64
2023/04/03 16:31:42;;;;;;;4.25;1.88;;;;;;;;;;10129888;28;20056;-62
2023/04/03 16:36:37;;;;;;;4.45;1.23;;;;;;;;;;10132316;28;20052;-62
2023/04/03 16:41:30;;;;;;;4.18;1.75;;;;;;;;;;10135972;28;20074;-62
2023/04/03 16:46:24;;;;;;;2.70;1.65;;;;;;;;;;10140561;28;20087;-62
2023/04/03 16:51:17;;;;;;;9.00;3.05;;;;;;;;;;10132849;28;20111;-63
2023/04/03 16:56:10;;;;;;;8.02;3.88;;;;;;;;;;10146498;28;20493;-63
2023/04/03 17:01:16;;;;;;;6.93;5.55;;;;;;;;;;10131536;28;20051;-61
2023/04/03 17:06:15;;;;;;;13.60;6.70;;;;;;;;;;10127521;28;20424;-62
2023/04/03 17:11:10;;;;;;;7.20;4.32;;;;;;;;;;10113398;28;20048;-62
2023/04/03 17:16:07;;;;;;;5.50;3.33;;;;;;;;;;10131171;28;20068;-62
2023/04/03 17:21:02;;;;;;;7.93;2.05;;;;;;;;;;10107371;28;20049;-62
2023/04/03 17:25:55;;;;;;;9.10;2.05;;;;;;;;;;10129136;28;20056;-63
2023/04/03 17:30:48;;;;;;;4.30;1.80;;;;;;;;;;10130417;28;20041;-63
2023/04/03 17:35:41;;;;;;;3.55;1.90;;;;;;;;;;10131789;28;20417;-62
2023/04/03 17:40:35;;;;;;;5.20;2.72;;;;;;;;;;10126108;28;20040;-63
2023/04/03 17:45:29;;;;;;;6.88;2.72;;;;;;;;;;10134538;28;20068;-64
2023/04/03 17:50:23;;;;;;;5.95;2.25;;;;;;;;;;10136670;28;20053;-63
2023/04/03 17:55:17;;;;;;;3.97;1.60;;;;;;;;;;10135245;28;20459;-63
2023/04/03 18:00:15;;;;;;;6.13;2.13;;;;;;;;;;10134740;28;20045;-63
2023/04/03 18:05:09;;;;;;;5.15;2.50;;;;;;;;;;10135246;28;20548;-63
2023/04/03 18:10:03;;;;;;;11.40;2.65;;;;;;;;;;10143761;28;20060;-63
2023/04/03 18:14:58;;;;;;;5.57;3.67;;;;;;;;;;10133910;28;20048;-62
2023/04/03 18:19:51;;;;;;;9.02;5.00;;;;;;;;;;10143933;28;20060;-63
2023/04/03 18:24:44;;;;;;;10.63;4.20;;;;;;;;;;10140382;28;20057;-63
2023/04/03 18:29:41;;;;;;;8.35;5.50;;;;;;;;;;10143046;28;20095;-63
2023/04/03 18:34:35;;;;;;;11.10;8.23;;;;;;;;;;10144321;28;20048;-63
2023/04/03 18:39:28;;;;;;;12.07;9.15;;;;;;;;;;10143027;28;20497;-63
2023/04/03 18:44:24;;;;;;;9.93;8.00;;;;;;;;;;10139333;28;20421;-63
2023/04/03 18:49:17;;;;;;;11.05;8.93;;;;;;;;;;10142807;28;20041;-63
2023/04/03 18:54:11;;;;;;;11.38;8.70;;;;;;;;;;10142134;28;20131;-63
2023/04/03 18:59:04;;;;;;;14.73;9.45;;;;;;;;;;10126890;28;20044;-62
2023/04/03 19:03:59;;;;;;;12.38;8.68;;;;;;;;;;10145227;28;20453;-65
2023/04/03 19:08:53;;;;;;;6.72;5.18;;;;;;;;;;10144099;28;20127;-65
2023/04/03 19:13:46;;;;;;;10.77;4.03;;;;;;;;;;10142285;28;20071;-65
2023/04/03 19:18:59;;;;;;;6.00;3.15;;;;;;;;;;10144680;28;20188;-63
2023/04/03 19:23:54;;;;;;;4.72;3.42;;;;;;;;;;10139624;28;20048;-64
2023/04/03 19:28:49;;;;;;;5.15;3.05;;;;;;;;;;10136312;28;20063;-63
2023/04/03 19:33:43;;;;;;;5.82;2.45;;;;;;;;;;10135658;28;20068;-64
2023/04/03 19:38:37;;;;;;;4.25;2.75;;;;;;;;;;10140812;28;20532;-64
2023/04/03 19:43:32;;;;;;;10.45;4.63;;;;;;;;;;10139489;28;20040;-64
2023/04/03 19:48:25;;;;;;;5.57;3.63;;;;;;;;;;10142518;28;20068;-63
2023/04/03 19:53:21;;;;;;;3.60;2.90;;;;;;;;;;10135630;28;20072;-63
2023/04/03 19:58:14;;;;;;;6.47;3.25;;;;;;;;;;10123276;28;20390;-64
2023/04/03 20:03:07;;;;;;;4.90;2.92;;;;;;;;;;10143626;28;20478;-64
2023/04/03 20:08:01;;;;;;;7.20;3.67;;;;;;;;;;10139670;28;20106;-64
2023/04/03 20:12:54;;;;;;;3.30;2.95;;;;;;;;;;10142050;28;20489;-64
2023/04/03 20:17:47;;;;;;;7.28;4.57;;;;;;;;;;10138640;28;20167;-64
2023/04/03 20:22:40;;;;;;;7.15;4.13;;;;;;;;;;10139928;28;20091;-63
2023/04/03 20:27:33;;;;;;;5.38;4.25;;;;;;;;;;10134739;28;20130;-63
2023/04/03 20:32:26;;;;;;;8.55;3.70;;;;;;;;;;10137006;28;20139;-64
2023/04/03 20:37:22;;;;;;;9.60;3.83;;;;;;;;;;10136637;28;20048;-63
2023/04/03 20:42:14;;;;;;;5.68;3.97;;;;;;;;;;10140679;28;20127;-63
2023/04/03 20:47:09;;;;;;;8.00;3.45;;;;;;;;;;10138133;28;20080;-64
2023/04/03 20:52:04;;;;;;;14.20;5.30;;;;;;;;;;10140924;28;20044;-63
2023/04/03 20:57:01;;;;;;;11.70;4.30;;;;;;;;;;10140578;28;20490;-64
2023/04/03 21:01:54;;;;;;;7.57;3.65;;;;;;;;;;10140720;28;20045;-63
2023/04/03 21:07:26;;;;;;;7.43;3.97;;;;;;;;;;10139873;28;20045;-64
2023/04/03 21:12:56;;;;;;;9.13;4.55;;;;;;;;;;10130465;28;20128;-66
2023/04/03 21:18:07;;;;;;;8.32;5.68;;;;;;;;;;10137183;28;20080;-63
2023/04/03 21:23:00;;;;;;;7.05;5.40;;;;;;;;;;10133081;28;20045;-64
2023/04/03 21:27:53;;;;;;;9.13;6.22;;;;;;;;;;10136998;28;20052;-64
2023/04/03 21:32:46;;;;;;;8.02;6.20;;;;;;;;;;10128422;28;20044;-64
2023/04/03 21:37:40;;;;;;;8.68;5.78;;;;;;;;;;10133237;28;20049;-64
2023/04/03 21:42:33;;;;;;;9.60;5.50;;;;;;;;;;10136188;28;20049;-63
2023/04/03 21:47:27;;;;;;;11.27;6.43;;;;;;;;;;10135136;28;20501;-66
2023/04/03 21:52:21;;;;;;;9.57;6.32;;;;;;;;;;10141608;28;20559;-63
2023/04/03 21:57:15;;;;;;;9.98;6.95;;;;;;;;;;10143064;28;20048;-65
2023/04/03 22:02:08;;;;;;;9.35;6.05;;;;;;;;;;10145406;28;20054;-64
2023/04/03 22:07:03;;;;;;;8.63;6.65;;;;;;;;;;10143728;28;20421;-64
2023/04/03 22:11:57;;;;;;;11.27;6.07;;;;;;;;;;10149579;28;20078;-64
2023/04/03 22:16:51;;;;;;;10.25;6.07;;;;;;;;;;10136865;28;20164;-64
2023/04/03 22:21:46;;;;;;;7.35;6.47;;;;;;;;;;10143160;28;20067;-65
2023/04/03 22:26:43;;;;;;;9.98;7.30;;;;;;;;;;10143504;28;20490;-65
2023/04/03 22:31:35;;;;;;;8.10;5.65;;;;;;;;;;10147495;28;20044;-64
2023/04/03 22:36:29;;;;;;;16.42;7.43;;;;;;;;;;10142180;28;20048;-64
2023/04/03 22:41:22;;;;;;;9.38;6.20;;;;;;;;;;10136347;28;20095;-64
2023/04/03 22:46:15;;;;;;;18.00;7.32;;;;;;;;;;10115525;28;20048;-66
2023/04/03 22:51:09;;;;;;;12.10;6.78;;;;;;;;;;10135410;28;20079;-66
2023/04/03 22:56:09;;;;;;;8.32;5.68;;;;;;;;;;10143323;28;20045;-65
2023/04/03 23:01:08;;;;;;;8.90;6.40;;;;;;;;;;10137462;28;20398;-65
2023/04/03 23:06:03;;;;;;;12.50;7.13;;;;;;;;;;10147606;28;20044;-65
2023/04/03 23:10:58;;;;;;;13.48;7.72;;;;;;;;;;10149319;28;20052;-65
2023/04/03 23:15:57;;;;;;;13.32;5.70;;;;;;;;;;10148701;28;20076;-65
2023/04/03 23:20:50;;;;;;;16.33;6.93;;;;;;;;;;10145877;28;20045;-66
2023/04/03 23:25:44;;;;;;;8.40;6.25;;;;;;;;;;10148590;28;20044;-65
2023/04/03 23:30:37;;;;;;;9.57;6.30;;;;;;;;;;10147965;28;20489;-65
2023/04/03 23:35:30;;;;;;;11.95;7.20;;;;;;;;;;10148268;28;20079;-65
2023/04/03 23:40:23;;;;;;;10.38;5.88;;;;;;;;;;10147345;28;20412;-65
2023/04/03 23:45:17;;;;;;;7.18;5.50;;;;;;;;;;10148279;28;20056;-65
2023/04/03 23:50:10;;;;;;;5.47;4.85;;;;;;;;;;10147509;28;20048;-65
2023/04/03 23:55:05;;;;;;;10.60;4.97;;;;;;;;;;10147252;28;20489;-65
2023/04/03 23:59:58;;;;;;;12.27;5.18;;;;;;;;;;10147237;28;20519;-65
